Overview Statistics Trail Chart Weather Telemetry Raw packets
 

This is the latest recevied packets stored in our database for station/object OE3LXF-60. If no packets are shown the sender has not sent any packets the latest 24 hours.

If you compare the raw packets with similar data from other websites it may differ (especially the path), the reason is that we are not collecting packets from the same APRS-IS servers. Each APRS-IS server performes duplicate filtering, and which packet that is considered to be a duplicate may differ depending on which APRS-IS server you receive your data from.

<< 1 2 >>

1788595432: OE3LXF-60>APRSMC,TCPIP*,qAR,OE3XIA-12:T#782,986.9,28.4,0.0,1016.6,0.0,00000000

1788595432: OE3LXF-60>APRSMC,TCPIP*,qAR,OE3XIA-12:!4833.52N/01605.01E#dach 5/4 Lambda#BRG Hollabrunn/B=100/A=000860

1788593572: OE3LXF-60>APRSMC,TCPIP*,qAR,OE3XOC-12:T#781,986.8,29.4,0.0,1016.4,0.0,00000000

1788593572: OE3LXF-60>APRSMC,TCPIP*,qAR,OE3XOC-12::OE3LXF-60:PARM.Press,Temp.in,Hum,QNH,Temp.out,track,-,-,-,-,-,-,-

1788593572: OE3LXF-60>APRSMC,TCPIP*,qAR,OE3XOC-12::OE3LXF-60:UNIT.hPa,C deg,%,hPa,C deg,Y/N,O/N,O/N,O/N,O/N,O/N,O/N,O/N

1788593572: OE3LXF-60>APRSMC,TCPIP*,qAR,OE3XOC-12::OE3LXF-60:EQNS.0,1,0,0,1,0,0,1,0,0,1,0,0,1,0

1788593572: OE3LXF-60>APRSMC,TCPIP*,qAR,OE3XOC-12:!4833.52N/01605.01E#dach 5/4 Lambda#BRG Hollabrunn/B=100/A=000860

1788580893: OE3LXF-60>APRSMC,TCPIP*,qAR,OE3XIA-12:T#780,984.0,31.2,0.0,1013.3,0.0,00000000

1788580893: OE3LXF-60>APRSMC,TCPIP*,qAR,OE3XIA-12:!4833.52N/01605.01E#dach 5/4 Lambda#BRG Hollabrunn/B=100/A=000860

1788571789: OE3LXF-60>APRSMC,TCPIP*,qAR,OE3XOC-12:T#779,980.2,33.9,0.0,1009.2,0.0,00000000

1788571789: OE3LXF-60>APRSMC,TCPIP*,qAR,OE3XOC-12:!4833.52N/01605.01E#dach 5/4 Lambda#BRG Hollabrunn/B=100/A=000860

1788566402: OE3LXF-60>APRSMC,TCPIP*,qAR,OE3XOC-12:T#778,979.8,34.0,0.0,1008.8,0.0,00000000

1788566402: OE3LXF-60>APRSMC,TCPIP*,qAR,OE3XOC-12:!4833.52N/01605.01E#dach 5/4 Lambda#BRG Hollabrunn/B=100/A=000860

1788564555: OE3LXF-60>APRSMC,TCPIP*,qAR,OE3XIA-12:!4833.52N/01605.01E#dach 5/4 Lambda#BRG Hollabrunn/B=100/A=000860

1788564555: OE3LXF-60>APRSMC,TCPIP*,qAR,OE3XIA-12:T#777,979.7,34.0,0.0,1008.6,0.0,00000000

1788559095: OE3LXF-60>APRSMC,TCPIP*,qAR,OE3XOC-12:T#776,979.2,34.2,0.0,1008.2,0.0,00000000

1788559095: OE3LXF-60>APRSMC,TCPIP*,qAR,OE3XOC-12:!4833.52N/01605.01E#dach 5/4 Lambda#BRG Hollabrunn/B=100/A=000860

1788557296: OE3LXF-60>APRSMC,TCPIP*,qAR,OE3XIR-12:T#775,979.3,34.3,0.0,1008.2,0.0,00000000

1788557296: OE3LXF-60>APRSMC,TCPIP*,qAR,OE3XIR-12:!4833.52N/01605.01E#dach 5/4 Lambda#BRG Hollabrunn/B=100/A=000860

1788555466: OE3LXF-60>APRSMC,TCPIP*,qAR,OE3XOC-12:T#774,979.3,34.6,0.0,1008.2,0.0,00000000

1788555466: OE3LXF-60>APRSMC,TCPIP*,qAR,OE3XOC-12:!4833.52N/01605.01E#dach 5/4 Lambda#BRG Hollabrunn/B=100/A=000860

1788551862: OE3LXF-60>APRSMC,TCPIP*,qAR,OE3CZC-1:T#773,979.4,35.3,0.0,1008.2,0.0,00000000

1788551862: OE3LXF-60>APRSMC,TCPIP*,qAR,OE3CZC-1:!4833.52N/01605.01E#dach 5/4 Lambda#BRG Hollabrunn/B=100/A=000860

1788542781: OE3LXF-60>APRSMC,TCPIP*,qAR,OE3XIA-12:T#772,978.7,36.9,0.0,1007.3,0.0,00000000

1788542781: OE3LXF-60>APRSMC,TCPIP*,qAR,OE3XIA-12:!4833.52N/01605.01E#dach 5/4 Lambda#BRG Hollabrunn/B=100/A=000860